sensor_id;sensor_type;location;lat;lon;timestamp;temperature;humidity
73572;DHT22;61854;48.510;-2.770;2023-11-22T00:00:56;10.90;99.90
73572;DHT22;61854;48.510;-2.770;2023-11-22T00:03:21;10.90;99.90
73572;DHT22;61854;48.510;-2.770;2023-11-22T00:05:49;10.90;99.90
73572;DHT22;61854;48.510;-2.770;2023-11-22T00:08:15;10.90;99.90
73572;DHT22;61854;48.510;-2.770;2023-11-22T00:10:41;10.90;99.90
73572;DHT22;61854;48.510;-2.770;2023-11-22T00:13:07;10.90;99.90
73572;DHT22;61854;48.510;-2.770;2023-11-22T00:15:32;11.00;99.90
73572;DHT22;61854;48.510;-2.770;2023-11-22T00:17:58;10.90;99.90
73572;DHT22;61854;48.510;-2.770;2023-11-22T00:20:28;11.00;99.90
73572;DHT22;61854;48.510;-2.770;2023-11-22T00:22:53;10.90;99.90
73572;DHT22;61854;48.510;-2.770;2023-11-22T00:25:19;10.90;99.90
73572;DHT22;61854;48.510;-2.770;2023-11-22T00:27:45;10.90;99.90
73572;DHT22;61854;48.510;-2.770;2023-11-22T00:30:13;10.90;99.90
73572;DHT22;61854;48.510;-2.770;2023-11-22T00:32:39;10.90;99.90
73572;DHT22;61854;48.510;-2.770;2023-11-22T00:35:06;11.00;99.90
73572;DHT22;61854;48.510;-2.770;2023-11-22T00:37:33;11.00;99.90
73572;DHT22;61854;48.510;-2.770;2023-11-22T00:40:00;11.00;99.90
73572;DHT22;61854;48.510;-2.770;2023-11-22T00:42:26;11.00;99.90
73572;DHT22;61854;48.510;-2.770;2023-11-22T00:44:52;11.00;99.90
73572;DHT22;61854;48.510;-2.770;2023-11-22T00:47:19;11.00;99.90
73572;DHT22;61854;48.510;-2.770;2023-11-22T00:49:44;11.00;99.90
73572;DHT22;61854;48.510;-2.770;2023-11-22T00:52:10;11.00;99.90
73572;DHT22;61854;48.510;-2.770;2023-11-22T00:54:35;11.00;99.90
73572;DHT22;61854;48.510;-2.770;2023-11-22T00:57:01;11.00;99.90
73572;DHT22;61854;48.510;-2.770;2023-11-22T00:59:27;11.00;99.90
73572;DHT22;61854;48.510;-2.770;2023-11-22T01:01:52;11.00;99.90
73572;DHT22;61854;48.510;-2.770;2023-11-22T01:04:18;11.00;99.90
73572;DHT22;61854;48.510;-2.770;2023-11-22T01:06:43;11.00;99.90
73572;DHT22;61854;48.510;-2.770;2023-11-22T01:09:09;11.00;99.90
73572;DHT22;61854;48.510;-2.770;2023-11-22T01:11:37;11.10;99.90
73572;DHT22;61854;48.510;-2.770;2023-11-22T01:14:03;11.10;99.90
73572;DHT22;61854;48.510;-2.770;2023-11-22T01:16:28;11.00;99.90
73572;DHT22;61854;48.510;-2.770;2023-11-22T01:18:54;11.00;99.90
73572;DHT22;61854;48.510;-2.770;2023-11-22T01:21:20;11.00;99.90
73572;DHT22;61854;48.510;-2.770;2023-11-22T01:23:45;11.00;99.90
73572;DHT22;61854;48.510;-2.770;2023-11-22T01:26:12;11.00;99.90
73572;DHT22;61854;48.510;-2.770;2023-11-22T01:28:37;11.00;99.90
73572;DHT22;61854;48.510;-2.770;2023-11-22T01:31:05;11.00;99.90
73572;DHT22;61854;48.510;-2.770;2023-11-22T01:33:31;10.90;99.90
73572;DHT22;61854;48.510;-2.770;2023-11-22T01:36:01;10.90;99.90
73572;DHT22;61854;48.510;-2.770;2023-11-22T01:38:27;10.90;99.90
73572;DHT22;61854;48.510;-2.770;2023-11-22T01:40:53;11.00;99.90
73572;DHT22;61854;48.510;-2.770;2023-11-22T01:43:20;11.00;99.90
73572;DHT22;61854;48.510;-2.770;2023-11-22T01:45:46;11.00;99.90
73572;DHT22;61854;48.510;-2.770;2023-11-22T01:48:12;11.00;99.90
73572;DHT22;61854;48.510;-2.770;2023-11-22T01:50:39;11.00;99.90
73572;DHT22;61854;48.510;-2.770;2023-11-22T01:53:06;11.00;99.90
73572;DHT22;61854;48.510;-2.770;2023-11-22T01:55:32;11.00;99.90
73572;DHT22;61854;48.510;-2.770;2023-11-22T01:57:58;11.00;99.90
73572;DHT22;61854;48.510;-2.770;2023-11-22T02:00:24;11.00;99.90
73572;DHT22;61854;48.510;-2.770;2023-11-22T02:02:51;11.00;99.90
73572;DHT22;61854;48.510;-2.770;2023-11-22T02:05:17;11.00;99.90
73572;DHT22;61854;48.510;-2.770;2023-11-22T02:07:43;11.00;99.90
73572;DHT22;61854;48.510;-2.770;2023-11-22T02:10:09;11.00;99.90
73572;DHT22;61854;48.510;-2.770;2023-11-22T02:12:35;11.00;99.90
73572;DHT22;61854;48.510;-2.770;2023-11-22T02:15:01;10.90;99.90
73572;DHT22;61854;48.510;-2.770;2023-11-22T02:17:31;10.90;99.90
73572;DHT22;61854;48.510;-2.770;2023-11-22T02:19:59;10.90;99.90
73572;DHT22;61854;48.510;-2.770;2023-11-22T02:22:25;10.90;99.90
73572;DHT22;61854;48.510;-2.770;2023-11-22T02:24:51;10.90;99.90
73572;DHT22;61854;48.510;-2.770;2023-11-22T02:27:16;10.90;99.90
73572;DHT22;61854;48.510;-2.770;2023-11-22T02:29:42;10.90;99.90
73572;DHT22;61854;48.510;-2.770;2023-11-22T02:32:08;11.00;99.90
73572;DHT22;61854;48.510;-2.770;2023-11-22T02:34:33;11.00;99.90
73572;DHT22;61854;48.510;-2.770;2023-11-22T02:36:59;11.00;99.90
73572;DHT22;61854;48.510;-2.770;2023-11-22T02:39:37;11.00;99.90
73572;DHT22;61854;48.510;-2.770;2023-11-22T02:42:09;11.00;99.90
73572;DHT22;61854;48.510;-2.770;2023-11-22T02:44:34;11.00;99.90
73572;DHT22;61854;48.510;-2.770;2023-11-22T02:47:00;11.00;99.90
73572;DHT22;61854;48.510;-2.770;2023-11-22T02:49:26;10.90;99.90
73572;DHT22;61854;48.510;-2.770;2023-11-22T02:51:51;10.90;99.90
73572;DHT22;61854;48.510;-2.770;2023-11-22T02:54:17;10.90;99.90
73572;DHT22;61854;48.510;-2.770;2023-11-22T02:56:42;11.00;99.90
73572;DHT22;61854;48.510;-2.770;2023-11-22T02:59:08;10.90;99.90
73572;DHT22;61854;48.510;-2.770;2023-11-22T03:01:38;10.90;99.90
73572;DHT22;61854;48.510;-2.770;2023-11-22T03:04:08;10.90;99.90
73572;DHT22;61854;48.510;-2.770;2023-11-22T03:06:34;10.90;99.90
73572;DHT22;61854;48.510;-2.770;2023-11-22T03:09:01;10.90;99.90
73572;DHT22;61854;48.510;-2.770;2023-11-22T03:11:27;10.90;99.90
73572;DHT22;61854;48.510;-2.770;2023-11-22T03:13:57;10.90;99.90
73572;DHT22;61854;48.510;-2.770;2023-11-22T03:16:23;10.90;99.90
73572;DHT22;61854;48.510;-2.770;2023-11-22T03:18:49;10.80;99.90
73572;DHT22;61854;48.510;-2.770;2023-11-22T03:21:16;10.90;99.90
73572;DHT22;61854;48.510;-2.770;2023-11-22T03:23:42;10.80;99.90
73572;DHT22;61854;48.510;-2.770;2023-11-22T03:26:08;10.90;99.90
73572;DHT22;61854;48.510;-2.770;2023-11-22T03:28:35;10.80;99.90
73572;DHT22;61854;48.510;-2.770;2023-11-22T03:31:00;10.80;99.90
73572;DHT22;61854;48.510;-2.770;2023-11-22T03:33:28;10.80;99.90
73572;DHT22;61854;48.510;-2.770;2023-11-22T03:35:53;10.80;99.90
73572;DHT22;61854;48.510;-2.770;2023-11-22T03:38:19;10.80;99.90
73572;DHT22;61854;48.510;-2.770;2023-11-22T03:40:46;10.80;99.90
73572;DHT22;61854;48.510;-2.770;2023-11-22T03:43:13;10.80;99.90
73572;DHT22;61854;48.510;-2.770;2023-11-22T03:45:38;10.80;99.90
73572;DHT22;61854;48.510;-2.770;2023-11-22T03:48:04;10.80;99.90
73572;DHT22;61854;48.510;-2.770;2023-11-22T03:50:30;10.80;99.90
73572;DHT22;61854;48.510;-2.770;2023-11-22T03:52:55;10.80;99.90
73572;DHT22;61854;48.510;-2.770;2023-11-22T03:55:21;10.70;99.90
73572;DHT22;61854;48.510;-2.770;2023-11-22T03:57:46;10.80;99.90
73572;DHT22;61854;48.510;-2.770;2023-11-22T04:00:12;10.80;99.90
73572;DHT22;61854;48.510;-2.770;2023-11-22T04:02:39;10.80;99.90
73572;DHT22;61854;48.510;-2.770;2023-11-22T04:05:05;10.70;99.90
73572;DHT22;61854;48.510;-2.770;2023-11-22T04:07:32;10.70;99.90
73572;DHT22;61854;48.510;-2.770;2023-11-22T04:09:59;10.70;99.90
73572;DHT22;61854;48.510;-2.770;2023-11-22T04:12:24;10.80;99.90
73572;DHT22;61854;48.510;-2.770;2023-11-22T04:14:50;10.80;99.90
73572;DHT22;61854;48.510;-2.770;2023-11-22T04:17:17;10.80;99.90
73572;DHT22;61854;48.510;-2.770;2023-11-22T04:19:42;10.70;99.90
73572;DHT22;61854;48.510;-2.770;2023-11-22T04:22:08;10.70;99.90
73572;DHT22;61854;48.510;-2.770;2023-11-22T04:24:36;10.70;99.90
73572;DHT22;61854;48.510;-2.770;2023-11-22T04:27:03;10.70;99.90
73572;DHT22;61854;48.510;-2.770;2023-11-22T04:29:28;10.80;99.90
73572;DHT22;61854;48.510;-2.770;2023-11-22T04:31:54;10.80;99.90
73572;DHT22;61854;48.510;-2.770;2023-11-22T04:34:20;10.80;99.90
73572;DHT22;61854;48.510;-2.770;2023-11-22T04:36:48;10.80;99.90
73572;DHT22;61854;48.510;-2.770;2023-11-22T04:39:14;10.80;99.90
73572;DHT22;61854;48.510;-2.770;2023-11-22T04:41:40;10.90;99.90
73572;DHT22;61854;48.510;-2.770;2023-11-22T04:44:06;10.90;99.90
73572;DHT22;61854;48.510;-2.770;2023-11-22T04:46:32;10.80;99.90
73572;DHT22;61854;48.510;-2.770;2023-11-22T04:48:58;10.80;99.90
73572;DHT22;61854;48.510;-2.770;2023-11-22T04:51:23;10.90;99.90
73572;DHT22;61854;48.510;-2.770;2023-11-22T04:53:50;10.80;99.90
73572;DHT22;61854;48.510;-2.770;2023-11-22T04:56:16;10.80;99.90
73572;DHT22;61854;48.510;-2.770;2023-11-22T04:58:42;10.80;99.90
73572;DHT22;61854;48.510;-2.770;2023-11-22T05:01:08;10.80;99.90
73572;DHT22;61854;48.510;-2.770;2023-11-22T05:03:34;10.80;99.90
73572;DHT22;61854;48.510;-2.770;2023-11-22T05:06:00;10.80;99.90
73572;DHT22;61854;48.510;-2.770;2023-11-22T05:08:26;10.80;99.90
73572;DHT22;61854;48.510;-2.770;2023-11-22T05:10:52;10.80;99.90
73572;DHT22;61854;48.510;-2.770;2023-11-22T05:13:18;10.80;99.90
73572;DHT22;61854;48.510;-2.770;2023-11-22T05:15:44;10.80;99.90
73572;DHT22;61854;48.510;-2.770;2023-11-22T05:18:09;10.80;99.90
73572;DHT22;61854;48.510;-2.770;2023-11-22T05:20:35;10.90;99.90
73572;DHT22;61854;48.510;-2.770;2023-11-22T05:23:01;10.90;99.90
73572;DHT22;61854;48.510;-2.770;2023-11-22T05:25:26;10.90;99.90
73572;DHT22;61854;48.510;-2.770;2023-11-22T05:27:52;10.90;99.90
73572;DHT22;61854;48.510;-2.770;2023-11-22T05:30:18;10.90;99.90
73572;DHT22;61854;48.510;-2.770;2023-11-22T05:32:43;10.90;99.90
73572;DHT22;61854;48.510;-2.770;2023-11-22T05:35:09;10.90;99.90
73572;DHT22;61854;48.510;-2.770;2023-11-22T05:37:36;10.90;99.90
73572;DHT22;61854;48.510;-2.770;2023-11-22T05:40:03;10.80;99.90
73572;DHT22;61854;48.510;-2.770;2023-11-22T05:42:29;10.80;99.90
73572;DHT22;61854;48.510;-2.770;2023-11-22T05:44:56;10.80;99.90
73572;DHT22;61854;48.510;-2.770;2023-11-22T05:47:22;10.70;99.90
73572;DHT22;61854;48.510;-2.770;2023-11-22T05:49:47;10.70;99.90
73572;DHT22;61854;48.510;-2.770;2023-11-22T05:52:13;10.60;99.90
73572;DHT22;61854;48.510;-2.770;2023-11-22T05:54:39;10.60;99.90
73572;DHT22;61854;48.510;-2.770;2023-11-22T05:57:04;10.50;99.90
73572;DHT22;61854;48.510;-2.770;2023-11-22T05:59:30;10.40;99.90
73572;DHT22;61854;48.510;-2.770;2023-11-22T06:01:56;10.40;99.90
73572;DHT22;61854;48.510;-2.770;2023-11-22T06:04:22;10.40;99.90
73572;DHT22;61854;48.510;-2.770;2023-11-22T06:06:47;10.30;99.90
73572;DHT22;61854;48.510;-2.770;2023-11-22T06:09:13;10.30;99.90
73572;DHT22;61854;48.510;-2.770;2023-11-22T06:11:40;10.30;99.90
73572;DHT22;61854;48.510;-2.770;2023-11-22T06:14:05;10.30;99.90
73572;DHT22;61854;48.510;-2.770;2023-11-22T06:16:31;10.30;99.90
73572;DHT22;61854;48.510;-2.770;2023-11-22T06:18:56;10.30;99.90
73572;DHT22;61854;48.510;-2.770;2023-11-22T06:21:22;10.20;99.90
73572;DHT22;61854;48.510;-2.770;2023-11-22T06:23:52;10.20;99.90
73572;DHT22;61854;48.510;-2.770;2023-11-22T06:26:20;10.30;99.90
73572;DHT22;61854;48.510;-2.770;2023-11-22T06:28:46;10.30;99.90
73572;DHT22;61854;48.510;-2.770;2023-11-22T06:31:14;10.30;99.90
73572;DHT22;61854;48.510;-2.770;2023-11-22T06:33:40;10.20;99.90
73572;DHT22;61854;48.510;-2.770;2023-11-22T06:36:06;10.20;99.90
73572;DHT22;61854;48.510;-2.770;2023-11-22T06:38:32;10.20;99.90
73572;DHT22;61854;48.510;-2.770;2023-11-22T06:40:58;10.20;99.90
73572;DHT22;61854;48.510;-2.770;2023-11-22T06:43:23;10.10;99.90
73572;DHT22;61854;48.510;-2.770;2023-11-22T06:45:49;10.10;99.90
73572;DHT22;61854;48.510;-2.770;2023-11-22T06:48:16;10.10;99.90
73572;DHT22;61854;48.510;-2.770;2023-11-22T06:50:42;10.10;99.90
73572;DHT22;61854;48.510;-2.770;2023-11-22T06:53:07;10.10;99.90
73572;DHT22;61854;48.510;-2.770;2023-11-22T06:55:33;10.10;99.90
73572;DHT22;61854;48.510;-2.770;2023-11-22T06:57:59;10.10;99.90
73572;DHT22;61854;48.510;-2.770;2023-11-22T07:00:24;10.10;99.90
73572;DHT22;61854;48.510;-2.770;2023-11-22T07:02:52;10.20;99.90
73572;DHT22;61854;48.510;-2.770;2023-11-22T07:05:18;10.20;99.90
73572;DHT22;61854;48.510;-2.770;2023-11-22T07:07:44;10.20;99.90
73572;DHT22;61854;48.510;-2.770;2023-11-22T07:10:10;10.10;99.90
73572;DHT22;61854;48.510;-2.770;2023-11-22T07:12:36;10.10;99.90
73572;DHT22;61854;48.510;-2.770;2023-11-22T07:15:03;10.10;99.90
73572;DHT22;61854;48.510;-2.770;2023-11-22T07:17:31;10.10;99.90
73572;DHT22;61854;48.510;-2.770;2023-11-22T07:19:58;10.10;99.90
73572;DHT22;61854;48.510;-2.770;2023-11-22T07:22:26;10.10;99.90
73572;DHT22;61854;48.510;-2.770;2023-11-22T07:24:52;10.10;99.90
73572;DHT22;61854;48.510;-2.770;2023-11-22T07:27:19;10.00;99.90
73572;DHT22;61854;48.510;-2.770;2023-11-22T07:29:46;10.00;99.90
73572;DHT22;61854;48.510;-2.770;2023-11-22T07:32:12;10.00;99.90
73572;DHT22;61854;48.510;-2.770;2023-11-22T07:34:39;10.10;99.90
73572;DHT22;61854;48.510;-2.770;2023-11-22T07:37:06;10.10;99.90
73572;DHT22;61854;48.510;-2.770;2023-11-22T07:39:35;10.10;99.90
73572;DHT22;61854;48.510;-2.770;2023-11-22T07:42:02;10.20;99.90
73572;DHT22;61854;48.510;-2.770;2023-11-22T07:44:27;10.20;99.90
73572;DHT22;61854;48.510;-2.770;2023-11-22T07:46:53;10.20;99.90
73572;DHT22;61854;48.510;-2.770;2023-11-22T07:49:22;10.30;99.90
73572;DHT22;61854;48.510;-2.770;2023-11-22T07:51:48;10.30;99.90
73572;DHT22;61854;48.510;-2.770;2023-11-22T07:54:19;10.30;99.90
73572;DHT22;61854;48.510;-2.770;2023-11-22T07:56:48;10.30;99.90
73572;DHT22;61854;48.510;-2.770;2023-11-22T07:59:14;10.40;99.90
73572;DHT22;61854;48.510;-2.770;2023-11-22T08:01:42;10.40;99.90
73572;DHT22;61854;48.510;-2.770;2023-11-22T08:04:09;10.60;99.90
73572;DHT22;61854;48.510;-2.770;2023-11-22T08:06:35;10.70;99.90
73572;DHT22;61854;48.510;-2.770;2023-11-22T08:09:01;10.70;99.90
73572;DHT22;61854;48.510;-2.770;2023-11-22T08:11:30;10.70;99.90
73572;DHT22;61854;48.510;-2.770;2023-11-22T08:13:57;10.60;99.90
73572;DHT22;61854;48.510;-2.770;2023-11-22T08:16:25;10.60;99.90
73572;DHT22;61854;48.510;-2.770;2023-11-22T08:18:51;10.60;99.90
73572;DHT22;61854;48.510;-2.770;2023-11-22T08:21:17;10.60;99.90
73572;DHT22;61854;48.510;-2.770;2023-11-22T08:23:42;10.60;99.90
73572;DHT22;61854;48.510;-2.770;2023-11-22T08:26:08;10.60;99.90
73572;DHT22;61854;48.510;-2.770;2023-11-22T08:28:34;10.60;99.90
73572;DHT22;61854;48.510;-2.770;2023-11-22T08:31:00;10.60;99.90
73572;DHT22;61854;48.510;-2.770;2023-11-22T08:33:29;10.60;99.90
73572;DHT22;61854;48.510;-2.770;2023-11-22T08:35:55;10.50;99.90
73572;DHT22;61854;48.510;-2.770;2023-11-22T08:38:25;10.50;99.90
73572;DHT22;61854;48.510;-2.770;2023-11-22T08:40:54;10.50;99.90
73572;DHT22;61854;48.510;-2.770;2023-11-22T08:43:22;10.40;99.90
73572;DHT22;61854;48.510;-2.770;2023-11-22T08:45:51;10.50;99.90
73572;DHT22;61854;48.510;-2.770;2023-11-22T08:48:16;10.50;99.90
73572;DHT22;61854;48.510;-2.770;2023-11-22T08:50:42;10.50;99.90
73572;DHT22;61854;48.510;-2.770;2023-11-22T08:53:10;10.50;99.90
73572;DHT22;61854;48.510;-2.770;2023-11-22T08:55:35;10.60;99.90
73572;DHT22;61854;48.510;-2.770;2023-11-22T08:58:01;10.60;99.90
73572;DHT22;61854;48.510;-2.770;2023-11-22T09:00:27;10.70;99.90
73572;DHT22;61854;48.510;-2.770;2023-11-22T09:02:54;10.80;99.90
73572;DHT22;61854;48.510;-2.770;2023-11-22T09:05:23;10.90;99.90
73572;DHT22;61854;48.510;-2.770;2023-11-22T09:07:48;11.00;99.90
73572;DHT22;61854;48.510;-2.770;2023-11-22T09:10:14;11.00;99.90
73572;DHT22;61854;48.510;-2.770;2023-11-22T09:12:42;11.10;99.90
73572;DHT22;61854;48.510;-2.770;2023-11-22T09:15:09;11.10;99.90
73572;DHT22;61854;48.510;-2.770;2023-11-22T09:17:38;11.10;99.90
73572;DHT22;61854;48.510;-2.770;2023-11-22T09:20:09;11.10;99.90
73572;DHT22;61854;48.510;-2.770;2023-11-22T09:22:44;11.10;99.90
73572;DHT22;61854;48.510;-2.770;2023-11-22T09:25:14;11.10;99.90
73572;DHT22;61854;48.510;-2.770;2023-11-22T09:27:45;11.10;99.90
73572;DHT22;61854;48.510;-2.770;2023-11-22T09:30:15;11.10;99.90
73572;DHT22;61854;48.510;-2.770;2023-11-22T09:33:09;11.10;99.90
73572;DHT22;61854;48.510;-2.770;2023-11-22T09:35:37;11.20;99.90
73572;DHT22;61854;48.510;-2.770;2023-11-22T09:38:04;11.30;99.90
73572;DHT22;61854;48.510;-2.770;2023-11-22T09:40:34;11.30;99.90
73572;DHT22;61854;48.510;-2.770;2023-11-22T09:43:02;11.40;99.90
73572;DHT22;61854;48.510;-2.770;2023-11-22T09:45:28;11.40;99.90
73572;DHT22;61854;48.510;-2.770;2023-11-22T09:47:58;11.50;99.90
73572;DHT22;61854;48.510;-2.770;2023-11-22T09:50:38;11.50;99.90
73572;DHT22;61854;48.510;-2.770;2023-11-22T09:53:22;11.50;99.90
73572;DHT22;61854;48.510;-2.770;2023-11-22T09:55:48;11.50;99.00
73572;DHT22;61854;48.510;-2.770;2023-11-22T09:58:13;11.50;99.20
73572;DHT22;61854;48.510;-2.770;2023-11-22T10:00:42;11.50;99.70
73572;DHT22;61854;48.510;-2.770;2023-11-22T10:03:09;11.50;99.90
73572;DHT22;61854;48.510;-2.770;2023-11-22T10:05:35;11.50;99.80
73572;DHT22;61854;48.510;-2.770;2023-11-22T10:08:01;11.50;99.90
73572;DHT22;61854;48.510;-2.770;2023-11-22T10:10:29;11.50;99.90
73572;DHT22;61854;48.510;-2.770;2023-11-22T10:12:56;11.50;99.90
73572;DHT22;61854;48.510;-2.770;2023-11-22T10:15:23;11.60;99.90
73572;DHT22;61854;48.510;-2.770;2023-11-22T10:17:57;11.60;99.70
73572;DHT22;61854;48.510;-2.770;2023-11-22T10:23:01;11.60;99.90
73572;DHT22;61854;48.510;-2.770;2023-11-22T10:25:26;11.70;99.90
73572;DHT22;61854;48.510;-2.770;2023-11-22T10:27:52;11.70;99.90
73572;DHT22;61854;48.510;-2.770;2023-11-22T10:30:18;11.70;99.90
73572;DHT22;61854;48.510;-2.770;2023-11-22T10:32:45;11.70;99.90
73572;DHT22;61854;48.510;-2.770;2023-11-22T10:35:11;11.80;99.90
73572;DHT22;61854;48.510;-2.770;2023-11-22T10:37:40;11.80;99.90
73572;DHT22;61854;48.510;-2.770;2023-11-22T10:40:06;11.80;99.90
73572;DHT22;61854;48.510;-2.770;2023-11-22T10:42:42;11.90;99.90
73572;DHT22;61854;48.510;-2.770;2023-11-22T10:45:12;11.90;99.10
73572;DHT22;61854;48.510;-2.770;2023-11-22T10:47:40;11.80;99.40
73572;DHT22;61854;48.510;-2.770;2023-11-22T10:50:08;11.80;99.40
73572;DHT22;61854;48.510;-2.770;2023-11-22T10:52:36;11.80;99.90
73572;DHT22;61854;48.510;-2.770;2023-11-22T10:55:04;11.70;99.90
73572;DHT22;61854;48.510;-2.770;2023-11-22T10:57:40;11.70;99.90
73572;DHT22;61854;48.510;-2.770;2023-11-22T11:00:11;11.80;99.90
73572;DHT22;61854;48.510;-2.770;2023-11-22T11:02:41;11.80;99.90
73572;DHT22;61854;48.510;-2.770;2023-11-22T11:05:31;11.80;99.90
73572;DHT22;61854;48.510;-2.770;2023-11-22T11:08:11;11.80;98.30
73572;DHT22;61854;48.510;-2.770;2023-11-22T11:10:42;11.80;99.80
73572;DHT22;61854;48.510;-2.770;2023-11-22T11:13:11;11.80;99.30
73572;DHT22;61854;48.510;-2.770;2023-11-22T11:15:39;11.80;98.90
73572;DHT22;61854;48.510;-2.770;2023-11-22T11:18:07;11.90;99.40
73572;DHT22;61854;48.510;-2.770;2023-11-22T11:20:51;11.90;98.20
73572;DHT22;61854;48.510;-2.770;2023-11-22T11:23:23;11.90;98.40
73572;DHT22;61854;48.510;-2.770;2023-11-22T11:25:52;11.90;97.80
73572;DHT22;61854;48.510;-2.770;2023-11-22T11:28:19;12.00;97.90
73572;DHT22;61854;48.510;-2.770;2023-11-22T11:30:48;12.10;97.70
73572;DHT22;61854;48.510;-2.770;2023-11-22T11:33:33;12.10;97.80
73572;DHT22;61854;48.510;-2.770;2023-11-22T11:36:02;12.10;96.70
73572;DHT22;61854;48.510;-2.770;2023-11-22T11:38:32;12.10;97.80
73572;DHT22;61854;48.510;-2.770;2023-11-22T11:41:10;12.10;96.40
73572;DHT22;61854;48.510;-2.770;2023-11-22T11:43:43;12.00;96.60
73572;DHT22;61854;48.510;-2.770;2023-11-22T11:46:10;11.90;96.20
73572;DHT22;61854;48.510;-2.770;2023-11-22T11:48:36;11.90;97.30
73572;DHT22;61854;48.510;-2.770;2023-11-22T11:51:02;11.80;96.70
73572;DHT22;61854;48.510;-2.770;2023-11-22T11:53:28;11.80;97.50
73572;DHT22;61854;48.510;-2.770;2023-11-22T11:55:56;11.90;98.70
73572;DHT22;61854;48.510;-2.770;2023-11-22T11:58:23;11.90;98.70
73572;DHT22;61854;48.510;-2.770;2023-11-22T12:00:51;11.90;99.60
73572;DHT22;61854;48.510;-2.770;2023-11-22T12:03:18;12.00;99.00
73572;DHT22;61854;48.510;-2.770;2023-11-22T12:05:46;12.00;98.70
73572;DHT22;61854;48.510;-2.770;2023-11-22T12:08:13;11.90;97.30
73572;DHT22;61854;48.510;-2.770;2023-11-22T12:10:41;11.90;97.30
73572;DHT22;61854;48.510;-2.770;2023-11-22T12:13:07;11.80;98.40
73572;DHT22;61854;48.510;-2.770;2023-11-22T12:15:34;11.80;97.50
73572;DHT22;61854;48.510;-2.770;2023-11-22T12:18:00;11.70;97.30
73572;DHT22;61854;48.510;-2.770;2023-11-22T12:20:27;11.80;96.50
73572;DHT22;61854;48.510;-2.770;2023-11-22T12:22:58;11.80;96.80
73572;DHT22;61854;48.510;-2.770;2023-11-22T12:25:27;11.80;95.30
73572;DHT22;61854;48.510;-2.770;2023-11-22T12:27:54;11.90;96.50
73572;DHT22;61854;48.510;-2.770;2023-11-22T12:30:30;11.90;95.50
73572;DHT22;61854;48.510;-2.770;2023-11-22T12:33:01;12.00;96.40
73572;DHT22;61854;48.510;-2.770;2023-11-22T12:35:27;12.00;96.70
73572;DHT22;61854;48.510;-2.770;2023-11-22T12:37:53;12.00;95.00
73572;DHT22;61854;48.510;-2.770;2023-11-22T12:40:20;12.10;95.70
73572;DHT22;61854;48.510;-2.770;2023-11-22T12:42:50;12.10;95.40
73572;DHT22;61854;48.510;-2.770;2023-11-22T12:45:22;12.20;96.30
73572;DHT22;61854;48.510;-2.770;2023-11-22T12:47:50;12.30;97.00
73572;DHT22;61854;48.510;-2.770;2023-11-22T12:50:33;12.40;95.80
73572;DHT22;61854;48.510;-2.770;2023-11-22T12:53:14;12.40;95.70
73572;DHT22;61854;48.510;-2.770;2023-11-22T12:55:49;12.30;96.10
73572;DHT22;61854;48.510;-2.770;2023-11-22T12:58:16;12.30;96.40
73572;DHT22;61854;48.510;-2.770;2023-11-22T13:00:44;12.20;97.60
73572;DHT22;61854;48.510;-2.770;2023-11-22T13:03:10;12.20;98.50
73572;DHT22;61854;48.510;-2.770;2023-11-22T13:05:40;12.20;97.10
73572;DHT22;61854;48.510;-2.770;2023-11-22T13:08:12;12.20;97.90
73572;DHT22;61854;48.510;-2.770;2023-11-22T13:10:39;12.20;97.00
73572;DHT22;61854;48.510;-2.770;2023-11-22T13:13:05;12.20;98.60
73572;DHT22;61854;48.510;-2.770;2023-11-22T13:15:34;12.20;98.10
73572;DHT22;61854;48.510;-2.770;2023-11-22T13:18:00;12.20;97.30
73572;DHT22;61854;48.510;-2.770;2023-11-22T13:20:26;12.20;98.10
73572;DHT22;61854;48.510;-2.770;2023-11-22T13:22:53;12.30;97.80
73572;DHT22;61854;48.510;-2.770;2023-11-22T13:25:20;12.30;97.80
73572;DHT22;61854;48.510;-2.770;2023-11-22T13:27:50;12.40;98.10
73572;DHT22;61854;48.510;-2.770;2023-11-22T13:30:17;12.40;97.80
73572;DHT22;61854;48.510;-2.770;2023-11-22T13:32:46;12.50;97.80
73572;DHT22;61854;48.510;-2.770;2023-11-22T13:35:12;12.60;96.80
73572;DHT22;61854;48.510;-2.770;2023-11-22T13:37:47;12.80;96.60
73572;DHT22;61854;48.510;-2.770;2023-11-22T13:40:17;12.80;95.60
73572;DHT22;61854;48.510;-2.770;2023-11-22T13:42:52;12.80;94.30
73572;DHT22;61854;48.510;-2.770;2023-11-22T13:45:18;12.80;95.20
73572;DHT22;61854;48.510;-2.770;2023-11-22T13:47:49;12.90;94.30
73572;DHT22;61854;48.510;-2.770;2023-11-22T13:50:17;12.90;93.60
73572;DHT22;61854;48.510;-2.770;2023-11-22T13:52:54;13.20;94.20
73572;DHT22;61854;48.510;-2.770;2023-11-22T13:55:20;13.20;92.40
73572;DHT22;61854;48.510;-2.770;2023-11-22T14:00:24;13.50;91.20
73572;DHT22;61854;48.510;-2.770;2023-11-22T14:02:53;13.70;91.20
73572;DHT22;61854;48.510;-2.770;2023-11-22T14:05:25;13.70;90.90
73572;DHT22;61854;48.510;-2.770;2023-11-22T14:07:52;13.80;90.50
73572;DHT22;61854;48.510;-2.770;2023-11-22T14:10:18;13.90;90.20
73572;DHT22;61854;48.510;-2.770;2023-11-22T14:12:45;14.10;87.90
73572;DHT22;61854;48.510;-2.770;2023-11-22T14:15:12;13.90;88.40
73572;DHT22;61854;48.510;-2.770;2023-11-22T14:17:37;13.90;89.70
73572;DHT22;61854;48.510;-2.770;2023-11-22T14:22:35;14.00;88.90
73572;DHT22;61854;48.510;-2.770;2023-11-22T14:25:04;14.10;85.90
73572;DHT22;61854;48.510;-2.770;2023-11-22T14:27:33;14.20;86.10
73572;DHT22;61854;48.510;-2.770;2023-11-22T14:29:59;14.20;85.40
73572;DHT22;61854;48.510;-2.770;2023-11-22T14:32:25;14.40;82.80
73572;DHT22;61854;48.510;-2.770;2023-11-22T14:34:51;14.40;83.80
73572;DHT22;61854;48.510;-2.770;2023-11-22T14:37:18;14.30;82.20
73572;DHT22;61854;48.510;-2.770;2023-11-22T14:39:45;14.40;83.40
73572;DHT22;61854;48.510;-2.770;2023-11-22T14:42:11;14.40;82.90
73572;DHT22;61854;48.510;-2.770;2023-11-22T14:44:37;14.50;85.40
73572;DHT22;61854;48.510;-2.770;2023-11-22T14:47:04;14.40;83.00
73572;DHT22;61854;48.510;-2.770;2023-11-22T14:49:41;14.50;84.70
73572;DHT22;61854;48.510;-2.770;2023-11-22T14:52:06;14.80;84.10
73572;DHT22;61854;48.510;-2.770;2023-11-22T14:54:35;14.80;82.80
73572;DHT22;61854;48.510;-2.770;2023-11-22T14:57:01;14.60;83.60
73572;DHT22;61854;48.510;-2.770;2023-11-22T14:59:28;14.40;82.50
73572;DHT22;61854;48.510;-2.770;2023-11-22T15:01:58;14.30;84.10
73572;DHT22;61854;48.510;-2.770;2023-11-22T15:04:26;14.40;83.20
73572;DHT22;61854;48.510;-2.770;2023-11-22T15:06:52;14.20;78.60
73572;DHT22;61854;48.510;-2.770;2023-11-22T15:09:17;14.40;78.50
73572;DHT22;61854;48.510;-2.770;2023-11-22T15:11:43;14.40;75.30
73572;DHT22;61854;48.510;-2.770;2023-11-22T15:14:10;14.40;75.70
73572;DHT22;61854;48.510;-2.770;2023-11-22T15:16:36;14.30;77.20
73572;DHT22;61854;48.510;-2.770;2023-11-22T15:19:03;14.30;77.90
73572;DHT22;61854;48.510;-2.770;2023-11-22T15:21:29;14.50;78.40
73572;DHT22;61854;48.510;-2.770;2023-11-22T15:23:55;14.60;76.70